Terminal Aerodrome Forecast
Issued by NWS

Home | Current Version | Previous Version | Text Only | Print | Product List | Glossary Off
Versions: 1 2 3 4 5 6 7 8 9 10 11 12 13 14 15 16 17 18 19 20 21 22 23 24 25 26 27 28 29 30 31

000
FTUS43 KTOP 232300
TAFMHK
TAF
KMHK 232339Z 2400/2424 10009KT 5SM RA BR SCT015 BKN050
     FM240700 13009KT P6SM -SHRA BKN007
     FM241300 16009KT P6SM BKN010
     FM242000 19011KT P6SM BKN035
      TEMPO 2421/2424 4SM -TSRA OVC015CB=

USA.gov is the U.S. government's official web portal to all federal, state and local government web resources and services.